Time;durP1;ratioP1;P1;durP2;ratioP2;P2;SDS_P1;SDS_P2;PMS_P1;PMS_P2;Temp;Humidity;BMP_temperature;BMP_pressure;BME280_temperature;BME280_humidity;BME280_pressure;Samples;Min_cycle;Max_cycle;Signal;HPM_P1;HPM_P2
2021/03/31 00:01:28;;;;;;;1999.90;999.90;;;;;;;12.31;76.57;99337.31;5016209;28;20046;-64
2021/03/31 00:03:54;;;;;;;1999.90;999.90;;;;;;;12.29;77.14;99336.78;5019328;28;20103;-64
2021/03/31 00:06:20;;;;;;;1999.90;999.90;;;;;;;12.32;76.29;99346.44;5014765;28;20056;-64
2021/03/31 00:08:47;;;;;;;1999.90;999.90;;;;;;;12.29;75.54;99338.75;5014346;28;20041;-64
2021/03/31 00:11:13;;;;;;;1999.90;999.90;;;;;;;12.19;75.66;99339.78;5012872;28;20509;-64
2021/03/31 00:13:39;;;;;;;1999.90;999.90;;;;;;;12.13;75.71;99338.28;5016798;28;20062;-64
2021/03/31 00:16:06;;;;;;;1999.90;999.90;;;;;;;11.95;76.01;99346.44;5012250;28;20111;-64
2021/03/31 00:18:32;;;;;;;1999.90;999.90;;;;;;;12.06;75.71;99343.41;5017785;28;20050;-64
2021/03/31 00:21:01;;;;;;;1999.90;999.90;;;;;;;11.51;78.26;99347.88;5010138;28;20057;-64
2021/03/31 00:23:29;;;;;;;1999.90;999.90;;;;;;;11.08;80.32;99343.41;5018872;28;20493;-63
2021/03/31 00:25:56;;;;;;;1999.90;999.90;;;;;;;11.22;80.71;99345.38;5019888;28;20497;-64
2021/03/31 00:28:23;;;;;;;1999.90;999.90;;;;;;;11.37;80.71;99335.97;5017262;28;20107;-64
2021/03/31 00:30:50;;;;;;;1999.90;999.90;;;;;;;11.61;80.06;99341.28;5021832;28;20056;-64
2021/03/31 00:33:17;;;;;;;1999.90;999.90;;;;;;;11.44;80.14;99337.19;5017921;28;20256;-64
2021/03/31 00:35:44;;;;;;;1999.90;999.90;;;;;;;11.17;81.46;99329.69;5020471;28;20065;-64
2021/03/31 00:38:11;;;;;;;1999.90;999.90;;;;;;;11.48;80.46;99331.03;5016949;28;20054;-64
2021/03/31 00:40:48;;;;;;;1999.90;999.90;;;;;;;11.72;80.30;99328.88;5020793;28;20555;-64
2021/03/31 00:43:20;;;;;;;1999.90;999.90;;;;;;;11.81;79.43;99328.97;5025104;28;20063;-64
2021/03/31 00:45:46;;;;;;;1999.90;999.90;;;;;;;11.82;78.62;99325.06;5020288;28;20041;-64
2021/03/31 00:48:16;;;;;;;1999.90;999.90;;;;;;;11.63;79.73;99317.69;5024425;28;20053;-64
2021/03/31 00:50:44;;;;;;;1999.90;999.90;;;;;;;11.59;81.05;99324.97;5017403;28;20136;-64
2021/03/31 00:53:11;;;;;;;1999.90;999.90;;;;;;;11.77;80.30;99325.16;5020252;28;20448;-64
2021/03/31 00:55:38;;;;;;;1999.90;999.90;;;;;;;11.86;78.87;99314.19;5019952;28;20044;-64
2021/03/31 00:58:04;;;;;;;1999.90;999.90;;;;;;;11.87;78.52;99315.81;5015543;28;20053;-64
2021/03/31 01:00:30;;;;;;;1999.90;999.90;;;;;;;11.86;79.00;99317.75;5016563;28;20050;-65
2021/03/31 01:02:57;;;;;;;1999.90;999.90;;;;;;;11.97;79.03;99315.63;5022599;28;20057;-65
2021/03/31 01:05:25;;;;;;;1999.90;999.90;;;;;;;12.02;78.69;99309.16;5024132;28;20519;-65
2021/03/31 01:07:52;;;;;;;1999.90;999.90;;;;;;;12.02;77.82;99309.97;5021640;28;20060;-65
2021/03/31 01:10:37;;;;;;;1999.90;999.90;;;;;;;11.91;77.75;99314.91;5027047;28;20049;-65
2021/03/31 01:13:40;;;;;;;1999.90;999.90;;;;;;;11.51;79.91;99313.78;5016971;28;20502;-65
2021/03/31 01:16:23;;;;;;;1999.90;999.90;;;;;;;11.51;80.11;99309.09;5017274;28;20060;-65
2021/03/31 01:19:18;;;;;;;1999.90;999.90;;;;;;;11.65;79.50;99308.25;5016232;28;20567;-65
2021/03/31 01:22:03;;;;;;;1999.90;999.90;;;;;;;11.74;78.41;99315.53;5017255;28;20042;-65
2021/03/31 01:24:44;;;;;;;1999.90;999.90;;;;;;;11.57;79.72;99302.31;5027839;28;20455;-65
2021/03/31 01:27:36;;;;;;;1999.90;999.90;;;;;;;11.23;81.48;99297.19;5016214;28;20556;-65
2021/03/31 01:30:09;;;;;;;1999.90;999.90;;;;;;;11.32;81.50;99300.88;5024956;28;20137;-65
2021/03/31 01:32:59;;;;;;;1999.90;999.90;;;;;;;11.63;79.96;99306.63;5016212;28;20060;-65
2021/03/31 01:35:26;;;;;;;1999.90;999.90;;;;;;;11.61;79.38;99302.50;5020527;28;20049;-65
2021/03/31 01:38:01;;;;;;;1999.90;999.90;;;;;;;11.59;78.83;99299.22;5029141;28;20551;-65
2021/03/31 01:40:29;;;;;;;1999.90;999.90;;;;;;;11.41;78.50;99299.03;5017396;28;20041;-65
2021/03/31 01:43:01;;;;;;;1999.90;999.90;;;;;;;11.42;79.21;99297.09;5018373;28;20057;-65
2021/03/31 01:45:33;;;;;;;1999.90;999.90;;;;;;;11.44;79.62;99297.59;5021303;28;20500;-65
2021/03/31 01:48:12;;;;;;;1999.90;999.90;;;;;;;11.47;79.43;99291.44;5024635;28;20409;-65
2021/03/31 01:50:39;;;;;;;1999.90;999.90;;;;;;;11.41;79.31;99293.50;5021022;28;20050;-65
2021/03/31 01:53:06;;;;;;;1999.90;999.90;;;;;;;11.45;79.22;99285.41;5021289;28;20058;-65
2021/03/31 01:55:33;;;;;;;1999.90;999.90;;;;;;;11.54;78.98;99296.59;5025313;28;20500;-65
2021/03/31 01:58:01;;;;;;;1999.90;999.90;;;;;;;11.50;79.52;99293.59;5018556;28;20046;-65
2021/03/31 02:00:31;;;;;;;1999.90;999.90;;;;;;;11.62;79.37;99293.06;5020900;28;20057;-65
2021/03/31 02:02:59;;;;;;;1999.90;999.90;;;;;;;11.50;79.10;99288.06;5020872;28;20053;-65
2021/03/31 02:05:27;;;;;;;1999.90;999.90;;;;;;;11.14;81.10;99288.78;5024545;28;20060;-65
2021/03/31 02:07:57;;;;;;;;;;;;;;;11.12;81.18;99288.28;5021215;28;20084;-65
2021/03/31 02:10:28;;;;;;;1999.90;999.90;;;;;;;11.12;81.04;99284.66;5021895;28;19929;-65
2021/03/31 02:12:56;;;;;;;1999.90;999.90;;;;;;;11.01;80.85;99290.41;5021582;28;20054;-65
2021/03/31 02:15:28;;;;;;;1999.90;999.90;;;;;;;11.12;80.12;99291.03;5022867;28;20060;-65
2021/03/31 02:17:57;;;;;;;1999.90;999.90;;;;;;;11.12;79.36;99291.03;5019607;28;20045;-65
2021/03/31 02:20:24;;;;;;;1999.90;999.90;;;;;;;11.05;80.14;99285.09;5031523;28;20053;-65
2021/03/31 02:22:51;;;;;;;1999.90;999.90;;;;;;;11.07;80.58;99285.59;5031249;28;20909;-65
2021/03/31 02:25:19;;;;;;;1999.90;999.90;;;;;;;11.02;80.39;99286.50;5025703;28;20052;-65
2021/03/31 02:27:46;;;;;;;1999.90;999.90;;;;;;;11.00;80.30;99280.47;5022039;28;20114;-65
2021/03/31 02:30:16;;;;;;;1999.90;999.90;;;;;;;11.16;79.67;99292.06;5018578;28;20045;-66
2021/03/31 02:32:46;;;;;;;1999.90;999.90;;;;;;;11.13;79.33;99280.78;5022901;28;20178;-65
2021/03/31 02:35:15;;;;;;;1999.90;999.90;;;;;;;10.98;79.99;99282.72;5017227;28;20068;-65
2021/03/31 02:37:43;;;;;;;1999.90;999.90;;;;;;;10.87;81.02;99278.50;5020805;28;20053;-65
2021/03/31 02:40:11;;;;;;;1999.90;999.90;;;;;;;10.78;81.69;99281.16;5029211;28;20053;-65
2021/03/31 02:42:40;;;;;;;1999.90;999.90;;;;;;;10.78;81.24;99280.31;5020812;28;20391;-65
2021/03/31 02:45:08;;;;;;;1999.90;999.90;;;;;;;10.78;81.03;99281.16;5021364;28;20041;-65
2021/03/31 02:47:38;;;;;;;1999.90;999.90;;;;;;;10.87;80.57;99276.56;5021803;28;20053;-65
2021/03/31 02:50:06;;;;;;;1999.90;999.90;;;;;;;10.65;82.29;99277.22;5023586;28;20085;-65
2021/03/31 02:52:33;;;;;;;1999.90;999.90;;;;;;;10.52;83.24;99278.81;5019975;28;20058;-65
2021/03/31 02:55:01;;;;;;;1999.90;999.90;;;;;;;10.74;82.35;99275.41;5025576;28;20195;-65
2021/03/31 02:57:35;;;;;;;1999.90;999.90;;;;;;;10.96;81.45;99270.34;5024363;28;20049;-65
2021/03/31 03:00:07;;;;;;;1999.90;999.90;;;;;;;11.01;81.40;99268.25;5020959;28;20460;-65
2021/03/31 03:02:33;;;;;;;;;;;;;;;11.07;81.01;99260.69;5013088;28;20064;-65
2021/03/31 03:05:01;;;;;;;1999.90;999.90;;;;;;;11.10;80.25;99266.44;5019345;28;19925;-65
2021/03/31 03:07:28;;;;;;;1999.90;999.90;;;;;;;11.12;79.80;99271.66;5014383;28;20049;-65
2021/03/31 03:09:54;;;;;;;1999.90;999.90;;;;;;;11.03;79.41;99266.03;5023562;28;20044;-65
2021/03/31 03:12:22;;;;;;;1999.90;999.90;;;;;;;11.00;79.34;99274.09;5023744;28;20493;-65
2021/03/31 03:14:50;;;;;;;1999.90;999.90;;;;;;;10.82;79.88;99276.66;5022429;28;20049;-65
2021/03/31 03:17:17;;;;;;;1999.90;999.90;;;;;;;10.53;81.63;99269.41;5024868;28;20072;-65
2021/03/31 03:19:44;;;;;;;1999.90;999.90;;;;;;;10.40;82.84;99275.72;5019906;28;20046;-65
2021/03/31 03:22:11;;;;;;;1999.90;999.90;;;;;;;10.66;81.82;99276.13;5022979;28;20099;-65
2021/03/31 03:24:41;;;;;;;1999.90;999.90;;;;;;;10.72;80.98;99269.34;5026345;28;20044;-65
2021/03/31 03:27:12;;;;;;;1999.90;999.90;;;;;;;10.64;80.77;99272.81;5019205;28;20050;-65
2021/03/31 03:29:41;;;;;;;1999.90;999.90;;;;;;;10.10;84.36;99271.47;5013696;28;20046;-65
2021/03/31 03:32:07;;;;;;;1999.90;999.90;;;;;;;10.26;83.64;99269.28;5020852;28;20073;-65
2021/03/31 03:34:37;;;;;;;1999.90;999.90;;;;;;;10.54;82.21;99265.53;5020859;28;20119;-65
2021/03/31 03:37:03;;;;;;;1999.90;999.90;;;;;;;10.74;80.94;99263.53;5016513;28;20054;-65
2021/03/31 03:39:30;;;;;;;1999.90;999.90;;;;;;;10.66;80.33;99256.75;5020551;28;20091;-65
2021/03/31 03:41:56;;;;;;;1999.90;999.90;;;;;;;10.18;81.99;99268.88;5014478;28;20052;-65
2021/03/31 03:44:22;;;;;;;1999.90;999.90;;;;;;;10.15;82.66;99268.63;5022731;28;20045;-65
2021/03/31 03:46:52;;;;;;;1999.90;999.90;;;;;;;10.29;82.15;99268.69;5018460;28;20508;-65
2021/03/31 03:49:18;;;;;;;1999.90;999.90;;;;;;;10.10;83.00;99272.28;5017145;28;20042;-65
2021/03/31 03:51:45;;;;;;;1999.90;999.90;;;;;;;10.22;83.98;99269.88;5015207;28;20056;-65
2021/03/31 03:54:11;;;;;;;1999.90;999.90;;;;;;;10.43;83.12;99261.28;5024646;28;20408;-65
2021/03/31 03:56:38;;;;;;;1999.90;999.90;;;;;;;10.62;82.08;99265.97;5019825;28;20092;-65
2021/03/31 03:59:17;;;;;;;1999.90;999.90;;;;;;;10.57;81.76;99264.91;5019826;28;20042;-65
2021/03/31 04:01:43;;;;;;;1999.90;999.90;;;;;;;10.60;81.28;99268.19;5015903;28;20141;-65
2021/03/31 04:04:09;;;;;;;1999.90;999.90;;;;;;;10.56;81.57;99268.78;5016832;28;20061;-65
2021/03/31 04:06:35;;;;;;;1999.90;999.90;;;;;;;10.65;81.32;99265.34;5019163;28;20844;-65
2021/03/31 04:09:03;;;;;;;1999.90;999.90;;;;;;;10.66;81.69;99264.22;5018056;28;20049;-65
2021/03/31 04:11:29;;;;;;;1999.90;999.90;;;;;;;10.70;81.34;99265.25;5010342;28;20049;-65
2021/03/31 04:13:58;;;;;;;1999.90;999.90;;;;;;;10.74;81.16;99260.75;5013060;28;20429;-65
2021/03/31 04:16:26;;;;;;;1999.90;999.90;;;;;;;10.80;80.90;99267.03;5011759;28;20061;-65
2021/03/31 04:18:53;;;;;;;1999.90;999.90;;;;;;;10.75;81.16;99259.63;5016443;28;20053;-65
2021/03/31 04:21:19;;;;;;;1999.90;999.90;;;;;;;10.78;80.91;99266.47;5015545;28;20058;-65
2021/03/31 04:23:46;;;;;;;1999.90;999.90;;;;;;;10.76;80.76;99261.25;5015638;28;20051;-65
2021/03/31 04:26:33;;;;;;;1999.90;999.90;;;;;;;10.78;80.67;99266.47;5017034;28;20132;-65
2021/03/31 04:28:59;;;;;;;1999.90;999.90;;;;;;;10.82;80.46;99257.28;5021274;28;20052;-65
2021/03/31 04:31:28;;;;;;;1999.90;999.90;;;;;;;10.77;80.84;99257.38;5017232;28;20053;-65
2021/03/31 04:33:55;;;;;;;1999.90;999.90;;;;;;;10.74;81.27;99257.97;5011738;28;20060;-65
2021/03/31 04:36:21;;;;;;;1999.90;999.90;;;;;;;10.79;80.91;99259.84;5019647;28;20055;-65
2021/03/31 04:38:49;;;;;;;1999.90;999.90;;;;;;;10.81;81.05;99257.56;5018233;28;20073;-65
2021/03/31 04:41:16;;;;;;;1999.90;999.90;;;;;;;10.81;80.65;99254.81;5017068;28;20443;-65
2021/03/31 04:43:43;;;;;;;1999.90;999.90;;;;;;;10.69;80.84;99253.38;5012418;28;20293;-65
2021/03/31 04:46:09;;;;;;;1999.90;999.90;;;;;;;10.65;81.00;99257.06;5008007;28;20111;-65
2021/03/31 04:48:37;;;;;;;1999.90;999.90;;;;;;;10.41;82.28;99262.72;5026284;28;20350;-65
2021/03/31 04:51:05;;;;;;;1999.90;999.90;;;;;;;10.49;82.30;99267.56;5012778;28;20049;-64
2021/03/31 04:53:31;;;;;;;1999.90;999.90;;;;;;;10.73;81.41;99261.88;5017141;28;20049;-64
2021/03/31 04:55:58;;;;;;;1999.90;999.90;;;;;;;10.83;81.11;99261.69;5013715;28;20046;-65
2021/03/31 04:58:24;;;;;;;1999.90;999.90;;;;;;;10.78;81.64;99259.03;5008164;28;20084;-65
2021/03/31 05:00:50;;;;;;;1999.90;999.90;;;;;;;10.90;81.14;99261.28;5015081;28;20042;-65
2021/03/31 05:03:17;;;;;;;1999.90;999.90;;;;;;;10.95;80.35;99257.59;5018453;28;20057;-65
2021/03/31 05:05:43;;;;;;;1999.90;999.90;;;;;;;10.96;80.15;99256.50;5015276;28;20057;-65
2021/03/31 05:08:10;;;;;;;1999.90;999.90;;;;;;;10.88;80.70;99253.31;5017391;28;20152;-65
2021/03/31 05:10:36;;;;;;;1999.90;999.90;;;;;;;10.82;81.37;99257.28;5014710;28;20054;-65
2021/03/31 05:13:03;;;;;;;1999.90;999.90;;;;;;;10.92;81.59;99254.31;5013394;28;20057;-65
2021/03/31 05:15:31;;;;;;;1999.90;999.90;;;;;;;11.08;81.07;99256.78;5026154;28;20525;-65
2021/03/31 05:17:57;;;;;;;1999.90;999.90;;;;;;;11.23;80.56;99248.16;5016235;28;20061;-65
2021/03/31 05:20:23;;;;;;;1999.90;999.90;;;;;;;10.75;82.13;99254.91;5022637;28;20049;-65
2021/03/31 05:22:49;;;;;;;1999.90;999.90;;;;;;;10.56;84.25;99246.69;5018388;28;20053;-65
2021/03/31 05:25:15;;;;;;;1999.90;999.90;;;;;;;10.85;83.64;99247.53;5014150;28;20103;-65
2021/03/31 05:27:41;;;;;;;1999.90;999.90;;;;;;;11.18;82.77;99239.97;5010713;28;20633;-65
2021/03/31 05:30:09;;;;;;;1999.90;999.90;;;;;;;11.19;82.89;99246.34;5019454;28;20538;-65
2021/03/31 05:32:36;;;;;;;1999.90;999.90;;;;;;;11.11;82.96;99245.09;5010959;28;20049;-65
2021/03/31 05:35:08;;;;;;;1999.90;999.90;;;;;;;11.16;83.42;99242.22;5014016;28;20053;-65
2021/03/31 05:37:35;;;;;;;1999.90;999.90;;;;;;;11.45;82.52;99250.22;5013128;28;20464;-65
2021/03/31 05:40:03;;;;;;;1999.90;999.90;;;;;;;11.68;81.92;99253.03;5014881;28;20046;-65
2021/03/31 05:42:31;;;;;;;1999.90;999.90;;;;;;;11.87;81.12;99252.91;5018064;28;20065;-65
2021/03/31 05:45:00;;;;;;;1999.90;999.90;;;;;;;12.12;80.52;99253.47;5021785;28;20112;-65
2021/03/31 05:47:34;;;;;;;1999.90;999.90;;;;;;;12.46;79.02;99257.59;5018274;28;20046;-65
2021/03/31 05:50:01;;;;;;;1999.90;999.90;;;;;;;12.56;78.54;99254.56;5018678;28;20077;-65
2021/03/31 05:52:27;;;;;;;1999.90;999.90;;;;;;;12.58;78.35;99245.94;5018675;28;20056;-65
2021/03/31 05:54:54;;;;;;;1999.90;999.90;;;;;;;12.77;78.03;99248.50;5022168;28;20484;-65
2021/03/31 05:57:21;;;;;;;1999.90;999.90;;;;;;;12.93;77.22;99249.72;5024152;28;20056;-65
2021/03/31 05:59:47;;;;;;;1999.90;999.90;;;;;;;12.93;77.01;99246.94;5020162;28;20520;-65
2021/03/31 06:02:15;;;;;;;1999.90;999.90;;;;;;;13.04;76.88;99242.75;5012279;28;20057;-65
2021/03/31 06:04:41;;;;;;;1999.90;999.90;;;;;;;13.11;76.58;99244.25;5017587;28;20061;-65
2021/03/31 06:07:08;;;;;;;1999.90;999.90;;;;;;;13.18;76.36;99242.63;5023433;28;20426;-65
2021/03/31 06:09:34;;;;;;;1999.90;999.90;;;;;;;13.32;75.98;99242.53;5022526;28;20209;-65
2021/03/31 06:12:02;;;;;;;1999.90;999.90;;;;;;;13.34;75.13;99245.81;5018566;28;20563;-65
2021/03/31 06:14:28;;;;;;;1999.90;999.90;;;;;;;13.53;74.69;99241.94;5015036;28;20497;-65
2021/03/31 06:17:09;;;;;;;1999.90;999.90;;;;;;;13.60;74.48;99236.72;5017470;28;20057;-65
2021/03/31 06:19:38;;;;;;;1999.90;999.90;;;;;;;13.81;73.89;99238.88;5025008;28;20356;-65
2021/03/31 06:25:21;;;;;;;1999.90;999.90;;;;;;;13.98;72.90;99238.91;5019116;28;20061;-65
2021/03/31 06:27:59;;;;;;;1999.90;999.90;;;;;;;14.06;72.38;99232.50;5025012;28;20053;-65
2021/03/31 06:30:28;;;;;;;1999.90;999.90;;;;;;;14.11;72.56;99236.28;5021099;28;20057;-65
2021/03/31 06:32:56;;;;;;;1999.90;999.90;;;;;;;14.00;72.68;99238.56;5010679;28;20093;-65
2021/03/31 06:35:25;;;;;;;1999.90;999.90;;;;;;;14.02;72.52;99237.09;5017314;28;20089;-65
2021/03/31 06:38:06;;;;;;;1999.90;999.90;;;;;;;14.46;70.95;99234.28;5019953;28;20099;-65
2021/03/31 06:40:43;;;;;;;1999.90;999.90;;;;;;;14.71;70.21;99229.81;5017128;28;20045;-65
2021/03/31 06:43:25;;;;;;;1999.90;999.90;;;;;;;14.96;69.00;99232.84;5012009;28;20050;-65
2021/03/31 06:46:05;;;;;;;1999.90;999.90;;;;;;;14.90;69.22;99232.22;5023303;28;20053;-65
2021/03/31 06:48:34;;;;;;;1999.90;999.90;;;;;;;15.09;67.64;99237.38;5016713;28;20064;-65
2021/03/31 06:51:00;;;;;;;1999.90;999.90;;;;;;;15.12;66.98;99233.09;5017034;28;20055;-65
2021/03/31 06:53:28;;;;;;;1999.90;999.90;;;;;;;15.29;67.07;99237.78;5052327;28;20060;-65
2021/03/31 06:55:58;;;;;;;1999.90;999.90;;;;;;;15.78;65.28;99240.97;5016326;28;20049;-65
2021/03/31 06:58:25;;;;;;;1999.90;999.90;;;;;;;15.70;64.73;99236.22;5038492;28;20083;-65
2021/03/31 07:00:51;;;;;;;1999.90;999.90;;;;;;;16.05;64.00;99236.00;5029086;28;20404;-65
2021/03/31 07:03:18;;;;;;;1999.90;999.90;;;;;;;16.27;62.72;99237.63;5021262;28;20519;-65
2021/03/31 07:05:45;;;;;;;1999.90;999.90;;;;;;;16.68;61.52;99235.06;5026048;28;20409;-65
2021/03/31 07:08:15;;;;;;;1999.90;999.90;;;;;;;16.50;61.02;99242.81;5018706;28;20570;-65
2021/03/31 07:10:48;;;;;;;1999.90;999.90;;;;;;;16.43;60.53;99240.56;5017471;28;20054;-65
2021/03/31 07:13:27;;;;;;;1999.90;999.90;;;;;;;16.77;59.95;99240.56;5014887;28;20563;-65
2021/03/31 07:15:55;;;;;;;1999.90;999.90;;;;;;;16.90;58.93;99248.66;5019909;28;20057;-65
2021/03/31 07:18:22;;;;;;;1999.90;999.90;;;;;;;16.97;60.12;99242.50;5018023;28;20054;-66
2021/03/31 07:20:48;;;;;;;1999.90;999.90;;;;;;;17.17;59.17;99235.19;5029655;28;20140;-65
2021/03/31 07:23:15;;;;;;;1999.90;999.90;;;;;;;17.49;58.17;99234.59;5033646;28;20521;-64
2021/03/31 07:25:42;;;;;;;1999.90;999.90;;;;;;;17.62;57.63;99239.00;5024599;28;20072;-66
2021/03/31 07:28:15;;;;;;;1999.90;999.90;;;;;;;17.83;56.97;99238.84;5019001;28;20058;-65
2021/03/31 07:30:42;;;;;;;1999.90;999.90;;;;;;;17.67;57.10;99235.97;5020138;28;20100;-66
2021/03/31 07:33:19;;;;;;;1999.90;999.90;;;;;;;18.01;56.72;99236.59;5018631;28;20524;-67
2021/03/31 07:35:46;;;;;;;1999.90;999.90;;;;;;;18.36;55.94;99232.44;5022379;28;20416;-64
2021/03/31 07:38:15;;;;;;;1999.90;999.90;;;;;;;18.70;55.46;99235.75;5019313;28;20053;-65
2021/03/31 07:40:43;;;;;;;1999.90;999.90;;;;;;;18.43;54.47;99233.44;5029615;28;20041;-66
2021/03/31 07:43:18;;;;;;;1999.90;999.90;;;;;;;18.61;52.20;99231.13;5018158;28;20500;-66
2021/03/31 07:46:10;;;;;;;1999.90;999.90;;;;;;;18.85;52.08;99237.78;5052185;28;20060;-66
2021/03/31 07:48:37;;;;;;;;;;;;;;;19.20;50.05;99228.66;5016092;28;20052;-66
2021/03/31 07:51:19;;;;;;;1999.90;999.90;;;;;;;19.55;47.52;99236.31;5016093;28;19929;-65
2021/03/31 07:53:46;;;;;;;1999.90;999.90;;;;;;;19.42;49.84;99235.63;5016640;28;20053;-64
2021/03/31 07:56:27;;;;;;;1999.90;999.90;;;;;;;19.85;47.75;99242.25;5016967;28;20057;-64
2021/03/31 07:59:03;;;;;;;1999.90;999.90;;;;;;;19.70;47.95;99235.47;5017583;28;20499;-64
2021/03/31 08:01:45;;;;;;;1999.90;999.90;;;;;;;19.74;46.66;99238.38;5021858;28;20055;-64
2021/03/31 08:04:14;;;;;;;1999.90;999.90;;;;;;;19.58;44.88;99235.59;5019244;28;20117;-65
2021/03/31 08:06:41;;;;;;;1999.90;999.90;;;;;;;20.03;46.35;99236.22;5018726;28;20046;-65
2021/03/31 08:09:22;;;;;;;1999.90;999.90;;;;;;;20.65;43.96;99241.91;5014411;28;20548;-65
2021/03/31 08:11:51;;;;;;;1999.90;999.90;;;;;;;20.30;44.26;99239.19;5021019;28;20506;-65
2021/03/31 08:14:35;;;;;;;1999.90;999.90;;;;;;;20.48;42.10;99233.94;5016059;28;20567;-65
2021/03/31 08:17:22;;;;;;;1999.90;999.90;;;;;;;20.65;41.74;99230.66;5015700;28;20090;-65
2021/03/31 08:19:52;;;;;;;1999.90;999.90;;;;;;;20.92;41.09;99239.22;5013411;28;20394;-65
2021/03/31 08:22:19;;;;;;;1999.90;999.90;;;;;;;20.92;41.55;99239.22;5049037;28;20061;-65
2021/03/31 08:24:51;;;;;;;1999.90;999.90;;;;;;;21.44;41.92;99229.25;5023405;28;20065;-65
2021/03/31 08:27:18;;;;;;;1999.90;999.90;;;;;;;20.86;41.00;99229.47;5021966;28;20053;-65
2021/03/31 08:29:48;;;;;;;1999.90;999.90;;;;;;;20.72;42.80;99221.56;5016520;28;20052;-65
2021/03/31 08:32:15;;;;;;;1999.90;999.90;;;;;;;21.26;42.52;99217.69;5020380;28;20057;-65
2021/03/31 08:34:45;;;;;;;1999.90;999.90;;;;;;;21.69;42.00;99220.41;5017784;28;20484;-65
2021/03/31 08:37:20;;;;;;;1999.90;999.90;;;;;;;21.25;43.40;99218.06;5013685;28;20115;-65
2021/03/31 08:39:46;;;;;;;1999.90;999.90;;;;;;;21.73;42.36;99210.00;5018057;28;20472;-65
2021/03/31 08:42:13;;;;;;;1999.90;999.90;;;;;;;21.93;41.59;99209.88;5018069;28;20386;-66
2021/03/31 08:44:42;;;;;;;1999.90;999.90;;;;;;;22.00;40.65;99209.94;5011107;28;20062;-65
2021/03/31 08:47:18;;;;;;;1999.90;999.90;;;;;;;22.32;39.83;99213.19;5053213;28;20491;-65
2021/03/31 08:49:48;;;;;;;1999.90;999.90;;;;;;;21.98;41.33;99210.34;5010185;28;20049;-65
2021/03/31 08:52:17;;;;;;;1999.90;999.90;;;;;;;21.91;40.67;99206.63;5013425;28;20755;-65
2021/03/31 08:54:43;;;;;;;1999.90;999.90;;;;;;;21.36;40.85;99207.00;5021440;28;20059;-65
2021/03/31 08:57:13;;;;;;;1999.90;999.90;;;;;;;21.45;42.51;99205.53;5018137;28;20103;-64
2021/03/31 08:59:41;;;;;;;1999.90;999.90;;;;;;;21.74;41.04;99206.00;5024794;28;20104;-65
2021/03/31 09:02:08;;;;;;;1999.90;999.90;;;;;;;22.32;41.34;99196.31;5013640;28;20057;-65
2021/03/31 09:04:54;;;;;;;1999.90;999.90;;;;;;;22.11;39.27;99193.22;5017905;28;20057;-65
2021/03/31 09:07:21;;;;;;;1999.90;999.90;;;;;;;22.07;39.56;99190.34;5031863;28;20115;-65
2021/03/31 09:09:48;;;;;;;1999.90;999.90;;;;;;;22.08;39.29;99191.97;5021913;28;20463;-65
2021/03/31 09:12:20;;;;;;;1999.90;999.90;;;;;;;22.92;40.76;99193.69;5019328;28;20596;-65
2021/03/31 09:14:55;;;;;;;1999.90;999.90;;;;;;;22.77;38.45;99185.09;5020552;28;20049;-66
2021/03/31 09:17:22;;;;;;;1999.90;999.90;;;;;;;22.91;38.63;99187.25;5020265;28;20190;-63
2021/03/31 09:19:57;;;;;;;1999.90;999.90;;;;;;;21.86;40.28;99184.44;5018658;28;20068;-63
2021/03/31 09:22:28;;;;;;;1999.90;999.90;;;;;;;21.35;42.29;99182.84;5020074;28;20053;-64
2021/03/31 09:24:59;;;;;;;1999.90;999.90;;;;;;;22.44;40.34;99181.13;5021678;28;20565;-65
2021/03/31 09:27:32;;;;;;;1999.90;999.90;;;;;;;22.76;39.64;99174.22;5020907;28;20061;-64
2021/03/31 09:30:04;;;;;;;1999.90;999.90;;;;;;;23.05;38.68;99169.63;5019038;28;20594;-63
2021/03/31 09:35:10;;;;;;;1999.90;999.90;;;;;;;23.89;38.44;99174.66;5017390;28;20057;-64
2021/03/31 09:37:51;;;;;;;1999.90;999.90;;;;;;;24.22;37.24;99162.31;5015943;28;20053;-64
2021/03/31 09:40:37;;;;;;;1999.90;999.90;;;;;;;25.12;35.34;99170.94;5018991;28;20052;-64
2021/03/31 09:43:06;;;;;;;1999.90;999.90;;;;;;;25.01;35.42;99161.66;5021406;28;20049;-64
2021/03/31 09:45:37;;;;;;;1999.90;999.90;;;;;;;24.73;35.26;99165.28;5020633;28;20052;-65
2021/03/31 09:48:05;;;;;;;1999.90;999.90;;;;;;;23.52;36.63;99159.53;5025368;28;20056;-64
2021/03/31 09:50:34;;;;;;;1999.90;999.90;;;;;;;23.94;36.51;99153.72;5023150;28;20064;-65
2021/03/31 09:53:04;;;;;;;1999.90;999.90;;;;;;;24.31;37.23;99156.28;5017438;28;20501;-64
2021/03/31 09:55:31;;;;;;;1999.90;999.90;;;;;;;24.89;37.28;99157.22;5019291;28;20157;-64
2021/03/31 09:58:01;;;;;;;1999.90;999.90;;;;;;;25.00;36.45;99153.59;5022732;28;20050;-65
2021/03/31 10:00:28;;;;;;;1999.90;999.90;;;;;;;24.14;36.18;99143.72;5025444;28;20054;-65
2021/03/31 10:02:56;;;;;;;1999.90;999.90;;;;;;;23.70;36.58;99147.50;5017069;28;20058;-64
2021/03/31 10:05:26;;;;;;;1999.90;999.90;;;;;;;24.06;36.02;99133.59;5019545;28;20050;-65
2021/03/31 10:08:05;;;;;;;1999.90;999.90;;;;;;;23.83;36.65;99140.31;5021624;28;20056;-64
2021/03/31 10:10:41;;;;;;;1999.90;999.90;;;;;;;23.86;35.43;99136.75;5018744;28;20049;-64
2021/03/31 10:13:07;;;;;;;1999.90;999.90;;;;;;;24.36;35.72;99133.28;5019980;28;20057;-65
2021/03/31 10:15:34;;;;;;;1999.90;999.90;;;;;;;24.75;34.63;99128.91;5023516;28;20500;-65
2021/03/31 10:18:00;;;;;;;1999.90;999.90;;;;;;;24.90;34.35;99132.56;5017297;28;20046;-65
2021/03/31 10:20:34;;;;;;;1999.90;999.90;;;;;;;24.48;34.21;99128.47;5017705;28;20544;-65
2021/03/31 10:23:00;;;;;;;1999.90;999.90;;;;;;;25.51;34.18;99132.50;5020886;28;20045;-66
2021/03/31 10:25:46;;;;;;;1999.90;999.90;;;;;;;25.34;35.03;99122.03;5020350;28;20050;-65
2021/03/31 10:28:37;;;;;;;1999.90;999.90;;;;;;;24.36;34.08;99115.53;5023455;28;20050;-65
2021/03/31 10:31:19;;;;;;;1999.90;999.90;;;;;;;24.85;35.34;99113.97;5022414;28;20507;-65
2021/03/31 10:34:06;;;;;;;1999.90;999.90;;;;;;;24.59;35.73;99116.00;5018036;28;20187;-65
2021/03/31 10:51:04;;;;;;;1999.90;999.90;;;;;;;25.63;34.61;99098.09;5028346;28;20077;-65
2021/03/31 10:53:36;;;;;;;1999.90;999.90;;;;;;;25.85;34.88;99106.50;5023321;28;20054;-65
2021/03/31 10:56:03;;;;;;;1999.90;999.90;;;;;;;25.74;33.09;99094.41;5020328;28;20556;-66
2021/03/31 10:58:29;;;;;;;1999.90;999.90;;;;;;;26.43;33.50;99095.69;5020022;28;20053;-65
2021/03/31 11:00:56;;;;;;;1999.90;999.90;;;;;;;26.28;33.61;99089.31;5023548;28;20107;-65
2021/03/31 11:03:24;;;;;;;1999.90;999.90;;;;;;;27.00;32.66;99085.94;5022964;28;20066;-65
2021/03/31 11:05:52;;;;;;;1999.90;999.90;;;;;;;27.19;32.27;99083.75;5014633;28;20489;-66
2021/03/31 11:08:19;;;;;;;1999.90;999.90;;;;;;;26.05;32.93;99074.88;5014909;28;20050;-66
2021/03/31 11:10:45;;;;;;;1999.90;999.90;;;;;;;25.96;34.16;99078.13;5017144;28;20050;-65
2021/03/31 11:13:11;;;;;;;1999.90;999.90;;;;;;;26.29;33.25;99071.09;5024013;28;20057;-66
2021/03/31 11:15:38;;;;;;;1999.90;999.90;;;;;;;26.98;32.23;99067.75;5015710;28;20053;-65
2021/03/31 11:25:58;;;;;;;1999.90;999.90;;;;;;;25.56;34.99;99055.66;5019844;28;20584;-65
2021/03/31 11:28:25;;;;;;;1999.90;999.90;;;;;;;25.74;34.50;99046.25;5012852;28;20108;-65
2021/03/31 11:30:53;;;;;;;1999.90;999.90;;;;;;;26.56;33.06;99047.81;5024252;28;20394;-65
2021/03/31 11:33:23;;;;;;;1999.90;999.90;;;;;;;26.91;32.00;99045.91;5017976;28;20061;-66
2021/03/31 11:35:50;;;;;;;1999.90;999.90;;;;;;;27.23;31.59;99036.25;5018948;28;20500;-66